createdAt,value
2017-09-08T00:01:05.346Z,14.39
2017-09-08T00:01:50.437Z,14.37
2017-09-08T00:02:50.463Z,14.29
2017-09-08T00:04:50.499Z,14.25
2017-09-08T00:05:50.823Z,14.17
2017-09-08T00:07:05.479Z,14.2
2017-09-08T00:07:50.891Z,14.2
2017-09-08T00:08:50.589Z,14.22
2017-09-08T00:09:50.927Z,14.17
2017-09-08T00:10:50.957Z,14.1
2017-09-08T00:11:50.969Z,14.02
2017-09-08T00:13:50.688Z,14.02
2017-09-08T00:14:51.041Z,13.92
2017-09-08T00:15:50.741Z,13.87
2017-09-08T00:17:05.389Z,13.88
2017-09-08T00:17:50.802Z,13.91
2017-09-08T00:18:51.120Z,13.89
2017-09-08T00:20:05.771Z,13.88
2017-09-08T00:21:05.776Z,13.89
2017-09-08T00:21:50.887Z,13.89
2017-09-08T00:23:51.244Z,13.78
2017-09-08T00:24:51.258Z,13.79
2017-09-08T00:25:51.293Z,13.78
2017-09-08T00:26:50.990Z,13.71
2017-09-08T00:27:51.341Z,13.64
2017-09-08T00:29:05.963Z,13.63
2017-09-08T00:29:51.429Z,13.7
2017-09-08T00:30:51.443Z,13.63
2017-09-08T00:31:51.407Z,13.55
2017-09-08T00:33:06.054Z,13.59
2017-09-08T00:33:51.152Z,13.49
2017-09-08T00:35:51.493Z,13.59
2017-09-08T00:36:51.237Z,13.57
2017-09-08T00:37:51.538Z,13.54
2017-09-08T00:39:51.594Z,13.55
2017-09-08T00:40:51.618Z,13.54
2017-09-08T00:41:51.630Z,13.49
2017-09-08T00:42:51.379Z,13.57
2017-09-08T00:44:06.299Z,13.48
2017-09-08T00:44:51.715Z,13.59
2017-09-08T00:45:51.733Z,13.52
2017-09-08T00:46:51.451Z,13.62
2017-09-08T00:48:06.378Z,13.48
2017-09-08T00:48:51.793Z,13.48
2017-09-08T00:50:51.527Z,13.48
2017-09-08T00:51:51.879Z,13.36
2017-09-08T00:53:51.917Z,13.45
2017-09-08T00:54:51.926Z,13.42
2017-09-08T00:55:51.642Z,13.42
2017-09-08T00:56:51.983Z,13.29
2017-09-08T00:57:51.996Z,13.32
2017-09-08T00:58:51.713Z,13.23
2017-09-08T00:59:52.029Z,13.26
2017-09-08T01:00:52.078Z,13.19
2017-09-08T01:01:52.070Z,13.22
2017-09-08T01:02:51.789Z,13.22
2017-09-08T01:04:06.757Z,13.2
2017-09-08T01:04:52.150Z,13.17
2017-09-08T01:05:52.181Z,13.04
2017-09-08T01:07:06.821Z,13.07
2017-09-08T01:07:52.238Z,13.11
2017-09-08T01:08:52.261Z,13.05
2017-09-08T01:10:06.886Z,13
2017-09-08T01:10:52.280Z,13.05
2017-09-08T01:12:52.326Z,13.07
2017-09-08T01:13:52.364Z,13.11
2017-09-08T01:14:52.377Z,13.08
2017-09-08T01:16:52.433Z,12.92
2017-09-08T01:17:52.119Z,13.04
2017-09-08T01:18:52.478Z,13.05
2017-09-08T01:20:07.091Z,12.9
2017-09-08T01:20:52.491Z,12.95
2017-09-08T01:21:52.220Z,12.96
2017-09-08T01:22:52.254Z,12.96
2017-09-08T01:23:52.273Z,12.93
2017-09-08T01:24:52.589Z,12.9
2017-09-08T01:25:52.624Z,12.85
2017-09-08T01:26:52.324Z,12.86
2017-09-08T01:27:52.366Z,12.87
2017-09-08T01:29:07.297Z,12.89
2017-09-08T01:29:52.717Z,12.87
2017-09-08T01:30:52.734Z,12.92
2017-09-08T01:31:52.757Z,12.83
2017-09-08T01:33:52.489Z,12.79
2017-09-08T01:34:52.817Z,12.78
2017-09-08T01:36:52.857Z,12.79
2017-09-08T01:37:52.571Z,12.74
2017-09-08T01:38:52.944Z,12.67
2017-09-08T01:39:52.939Z,12.79
2017-09-08T01:41:07.571Z,12.68
2017-09-08T01:41:52.962Z,12.74
2017-09-08T01:42:52.999Z,12.79
2017-09-08T01:43:53.003Z,12.74
2017-09-08T01:44:53.096Z,12.64
2017-09-08T01:45:53.050Z,12.68
2017-09-08T01:46:53.093Z,12.54
2017-09-08T01:47:53.112Z,12.54
2017-09-08T01:48:53.132Z,12.62
2017-09-08T01:49:53.136Z,12.56
2017-09-08T01:50:53.172Z,12.56
2017-09-08T01:52:07.494Z,12.49
2017-09-08T01:52:53.238Z,12.45
2017-09-08T01:53:53.241Z,12.49
2017-09-08T01:54:53.240Z,12.54
2017-09-08T01:55:53.287Z,12.46
2017-09-08T01:56:53.293Z,12.53
2017-09-08T01:57:53.322Z,12.56
2017-09-08T01:58:53.332Z,12.46
2017-09-08T01:59:53.371Z,12.5
2017-09-08T02:00:53.069Z,12.46
2017-09-08T02:01:53.101Z,12.41
2017-09-08T02:02:53.419Z,12.42
2017-09-08T02:03:53.468Z,12.35
2017-09-08T02:04:53.466Z,12.41
2017-09-08T02:05:53.514Z,12.42
2017-09-08T02:06:53.514Z,12.34
2017-09-08T02:08:08.156Z,12.31
2017-09-08T02:08:53.560Z,12.32
2017-09-08T02:09:53.284Z,12.39
2017-09-08T02:10:53.618Z,12.38
2017-09-08T02:11:53.622Z,12.39
2017-09-08T02:12:53.337Z,12.35
2017-09-08T02:13:53.680Z,12.34
2017-09-08T02:14:53.694Z,12.38
2017-09-08T02:15:53.723Z,12.24
2017-09-08T02:17:53.759Z,12.19
2017-09-08T02:18:53.511Z,12.28
2017-09-08T02:19:53.819Z,12.24
2017-09-08T02:20:53.870Z,12.21
2017-09-08T02:21:53.832Z,12.34
2017-09-08T02:23:08.489Z,12.37
2017-09-08T02:23:53.578Z,12.41
2017-09-08T02:24:53.602Z,12.29
2017-09-08T02:25:53.312Z,12.35
2017-09-08T02:27:08.578Z,12.31
2017-09-08T02:27:53.975Z,12.21
2017-09-08T02:28:53.690Z,12.29
2017-09-08T02:30:54.052Z,12.29
2017-09-08T02:31:54.070Z,12.27
2017-09-08T02:32:54.087Z,12.31
2017-09-08T02:33:53.790Z,12.31
2017-09-08T02:34:53.809Z,12.24
2017-09-08T02:35:54.149Z,12.32
2017-09-08T02:36:54.175Z,12.37
2017-09-08T02:37:53.889Z,12.35
2017-09-08T02:39:08.821Z,12.38
2017-09-08T02:39:53.939Z,12.46
2017-09-08T02:40:54.242Z,12.46
2017-09-08T02:41:54.281Z,12.47
2017-09-08T02:42:53.995Z,12.49
2017-09-08T02:43:54.332Z,12.64
2017-09-08T02:44:54.353Z,12.65
2017-09-08T02:45:54.056Z,12.7
2017-09-08T02:46:54.400Z,12.71
2017-09-08T02:48:54.420Z,12.82
2017-09-08T02:49:54.135Z,12.85
2017-09-08T02:50:54.479Z,12.93
2017-09-08T02:51:54.199Z,12.92
2017-09-08T02:52:54.520Z,12.92
2017-09-08T02:53:54.556Z,12.95
2017-09-08T02:55:54.580Z,12.92
2017-09-08T02:56:54.615Z,12.96
2017-09-08T02:57:54.614Z,13.05
2017-09-08T02:58:54.650Z,13.04
2017-09-08T02:59:54.677Z,13.05
2017-09-08T03:00:54.688Z,13.05
2017-09-08T03:01:54.409Z,13.12
2017-09-08T03:02:54.744Z,13.03
2017-09-08T03:03:54.762Z,13.12
2017-09-08T03:04:54.772Z,13.03
2017-09-08T03:05:54.801Z,13.1
2017-09-08T03:06:54.816Z,13.19
2017-09-08T03:07:54.859Z,13.17
2017-09-08T03:08:54.877Z,13.15
2017-09-08T03:09:54.949Z,13.19
2017-09-08T03:11:09.210Z,13.15
2017-09-08T03:11:54.917Z,13.15
2017-09-08T03:13:54.976Z,13.15
2017-09-08T03:14:55.002Z,13.23
2017-09-08T03:15:54.717Z,13.2
2017-09-08T03:16:54.737Z,13.19
2017-09-08T03:17:54.748Z,13.23
2017-09-08T03:18:55.071Z,13.19
2017-09-08T03:19:55.119Z,13.23
2017-09-08T03:20:55.117Z,13.3
2017-09-08T03:21:55.165Z,13.33
2017-09-08T03:22:55.156Z,13.36
2017-09-08T03:27:09.564Z,13.25
2017-09-08T03:27:55.285Z,13.29
2017-09-08T03:28:55.296Z,13.33
2017-09-08T03:29:55.319Z,13.36
2017-09-08T03:30:55.367Z,13.3
2017-09-08T03:31:55.375Z,13.29
2017-09-08T03:32:55.397Z,13.33
2017-09-08T03:33:55.415Z,13.33
2017-09-08T03:34:55.439Z,13.3
2017-09-08T03:35:55.452Z,13.32
2017-09-08T03:36:55.488Z,13.32
2017-09-08T03:37:55.483Z,13.39
2017-09-08T03:38:55.528Z,13.29
2017-09-08T03:39:55.555Z,13.36
2017-09-08T03:40:55.553Z,13.36
2017-09-08T03:41:55.274Z,13.33
2017-09-08T03:43:10.213Z,13.32
2017-09-08T03:43:55.644Z,13.26
2017-09-08T03:44:55.645Z,13.29
2017-09-08T03:46:10.297Z,13.33
2017-09-08T03:47:10.318Z,13.36
2017-09-08T03:47:55.710Z,13.33
2017-09-08T03:48:55.430Z,13.3
2017-09-08T03:49:55.770Z,13.3
2017-09-08T03:50:55.779Z,13.36
2017-09-08T03:51:55.818Z,13.41
2017-09-08T03:52:55.823Z,13.48
2017-09-08T03:54:10.464Z,13.49
2017-09-08T03:54:55.875Z,13.49
2017-09-08T03:55:55.904Z,13.46
2017-09-08T03:56:55.924Z,13.57
2017-09-08T03:58:10.290Z,13.51
2017-09-08T03:58:55.971Z,13.49
2017-09-08T03:59:56.005Z,13.51
2017-09-08T04:00:56.009Z,13.54
2017-09-08T04:01:56.019Z,13.46
2017-09-08T04:02:56.052Z,13.55
2017-09-08T04:03:56.136Z,13.54
2017-09-08T04:04:56.089Z,13.52
2017-09-08T04:05:56.125Z,13.54
2017-09-08T04:06:56.147Z,13.57
2017-09-08T04:07:56.153Z,13.48
2017-09-08T04:08:56.175Z,13.67
2017-09-08T04:09:55.878Z,13.69
2017-09-08T04:10:55.917Z,13.59
2017-09-08T04:11:56.248Z,13.66
2017-09-08T04:12:56.277Z,13.6
2017-09-08T04:13:56.282Z,13.6
2017-09-08T04:14:56.316Z,13.62
2017-09-08T04:15:56.339Z,13.66
2017-09-08T04:16:56.338Z,13.63
2017-09-08T04:17:56.386Z,13.67
2017-09-08T04:18:56.071Z,13.63
2017-09-08T04:19:56.430Z,13.6
2017-09-08T04:20:56.425Z,13.62
2017-09-08T04:21:56.484Z,13.64
2017-09-08T04:23:11.100Z,13.63
2017-09-08T04:23:56.503Z,13.64
2017-09-08T04:24:56.527Z,13.7
2017-09-08T04:25:56.538Z,13.66
2017-09-08T04:26:56.587Z,13.63
2017-09-08T04:27:56.597Z,13.64
2017-09-08T04:28:56.630Z,13.67
2017-09-08T04:30:11.243Z,13.64
2017-09-08T04:30:56.673Z,13.7
2017-09-08T04:31:56.673Z,13.79
2017-09-08T04:32:56.396Z,13.73
2017-09-08T04:34:11.346Z,13.63
2017-09-08T04:34:56.756Z,13.63
2017-09-08T04:36:11.390Z,13.67
2017-09-08T04:36:56.169Z,13.62
2017-09-08T04:37:56.823Z,13.7
2017-09-08T04:39:11.450Z,13.73
2017-09-08T04:40:56.884Z,13.67
2017-09-08T04:41:56.899Z,13.69
2017-09-08T04:44:56.965Z,13.64
2017-09-08T04:46:57.019Z,13.67
2017-09-08T04:48:11.640Z,13.69
2017-09-08T04:48:57.059Z,13.67
2017-09-08T04:49:57.075Z,13.71
2017-09-08T04:51:56.816Z,13.81
2017-09-08T04:53:57.173Z,13.81
2017-09-08T04:54:57.171Z,13.77
2017-09-08T04:55:57.218Z,13.78
2017-09-08T04:56:57.216Z,13.77
2017-09-08T04:58:57.274Z,13.75
2017-09-08T04:59:57.291Z,13.66
2017-09-08T05:00:57.014Z,13.66
2017-09-08T05:02:11.946Z,13.62
2017-09-08T05:02:57.373Z,13.63
2017-09-08T05:03:57.365Z,13.67
2017-09-08T05:04:57.404Z,13.75
2017-09-08T05:05:57.418Z,13.7
2017-09-08T05:06:57.464Z,13.67
2017-09-08T05:07:57.479Z,13.62
2017-09-08T05:08:57.478Z,13.63
2017-09-08T05:10:12.133Z,13.7
2017-09-08T05:10:57.533Z,13.64
2017-09-08T05:11:57.871Z,13.66
2017-09-08T05:12:57.592Z,13.81
2017-09-08T05:13:57.587Z,13.78
2017-09-08T05:14:57.615Z,13.75
2017-09-08T05:15:57.653Z,13.75
2017-09-08T05:16:57.666Z,13.87
2017-09-08T05:18:12.311Z,13.91
2017-09-08T05:18:57.704Z,13.91
2017-09-08T05:19:57.753Z,13.92
2017-09-08T05:20:57.749Z,13.95
2017-09-08T05:21:57.767Z,14
2017-09-08T05:22:57.802Z,13.97
2017-09-08T05:23:57.829Z,14
2017-09-08T05:25:12.463Z,14.06
2017-09-08T05:25:57.882Z,14
2017-09-08T05:26:57.910Z,14.04
2017-09-08T05:29:57.659Z,14.06
2017-09-08T05:30:57.974Z,14.07
2017-09-08T05:31:57.708Z,14.07
2017-09-08T05:33:12.632Z,14.12
2017-09-08T05:33:57.799Z,14.1
2017-09-08T05:35:12.674Z,14.09
2017-09-08T05:36:12.693Z,14.1
2017-09-08T05:36:58.118Z,14.14
2017-09-08T05:37:57.815Z,14
2017-09-08T05:38:57.850Z,14.07
2017-09-08T05:39:57.877Z,14.09
2017-09-08T05:40:57.875Z,14.1
2017-09-08T05:41:58.236Z,14.1
2017-09-08T05:42:57.936Z,14.15
2017-09-08T05:43:57.965Z,14.24
2017-09-08T05:44:57.971Z,14.15
2017-09-08T05:45:57.991Z,14.22
2017-09-08T05:46:58.026Z,14.17
2017-09-08T05:47:58.366Z,14.27
2017-09-08T05:48:58.388Z,14.28
2017-09-08T05:49:58.392Z,14.33
2017-09-08T05:50:58.429Z,14.33
2017-09-08T05:51:58.437Z,14.29
2017-09-08T05:53:13.086Z,14.33
2017-09-08T05:53:58.477Z,14.33
2017-09-08T05:54:58.521Z,14.36
2017-09-08T05:55:58.547Z,14.36
2017-09-08T05:56:58.537Z,14.36
2017-09-08T05:57:58.573Z,14.33
2017-09-08T05:58:58.887Z,14.35
2017-09-08T06:00:12.932Z,14.29
2017-09-08T06:00:58.640Z,14.36
2017-09-08T06:01:58.677Z,14.42
2017-09-08T06:02:58.381Z,14.4
2017-09-08T06:03:58.729Z,14.51
2017-09-08T06:05:13.345Z,14.5
2017-09-08T06:05:58.763Z,14.43
2017-09-08T06:06:58.774Z,14.4
2017-09-08T06:07:58.798Z,14.51
2017-09-08T06:08:58.821Z,14.46
2017-09-08T06:09:58.854Z,14.52
2017-09-08T06:10:58.851Z,14.51
2017-09-08T06:12:13.507Z,14.52
2017-09-08T06:12:58.591Z,14.52
2017-09-08T06:14:58.944Z,14.58
2017-09-08T06:15:58.977Z,14.52
2017-09-08T06:16:58.997Z,14.54
2017-09-08T06:17:59.021Z,14.62
2017-09-08T06:18:59.062Z,14.55
2017-09-08T06:19:58.752Z,14.58
2017-09-08T06:21:13.707Z,14.58
2017-09-08T06:22:13.715Z,14.62
2017-09-08T06:23:13.739Z,14.55
2017-09-08T06:23:58.850Z,14.61
2017-09-08T06:25:59.214Z,14.64
2017-09-08T06:26:58.919Z,14.52
2017-09-08T06:27:59.457Z,14.64
2017-09-08T06:28:59.256Z,14.58
2017-09-08T06:29:59.284Z,14.57
2017-09-08T06:30:59.315Z,14.65
2017-09-08T06:31:59.352Z,14.58
2017-09-08T06:33:59.383Z,14.64
2017-09-08T06:34:59.394Z,14.62
2017-09-08T06:37:14.067Z,14.94
2017-09-08T06:37:59.462Z,14.94
2017-09-08T06:38:59.485Z,15.09
2017-09-08T06:40:59.520Z,15.25
2017-09-08T06:41:59.545Z,15.16
2017-09-08T06:42:59.272Z,15.29
2017-09-08T06:43:59.611Z,15.41
2017-09-08T06:44:59.304Z,15.43
2017-09-08T06:45:59.639Z,15.36
2017-09-08T06:46:59.657Z,15.36
2017-09-08T06:48:59.698Z,15.44
2017-09-08T06:49:59.416Z,15.39
2017-09-08T06:50:59.774Z,15.44
2017-09-08T06:51:59.768Z,15.44
2017-09-08T06:53:14.418Z,15.35
2017-09-08T06:53:59.822Z,15.46
2017-09-08T06:54:59.844Z,15.44
2017-09-08T06:55:59.859Z,15.47
2017-09-08T06:56:59.897Z,15.47
2017-09-08T06:57:59.913Z,15.49
2017-09-08T06:58:59.941Z,15.36
2017-09-08T06:59:59.962Z,15.53
2017-09-08T07:00:59.982Z,15.46
2017-09-08T07:01:59.846Z,15.49
2017-09-08T07:03:59.838Z,15.59
2017-09-08T07:05:00.223Z,15.67
2017-09-08T07:06:00.095Z,15.67
2017-09-08T07:07:00.120Z,15.69
2017-09-08T07:08:14.750Z,15.67
2017-09-08T07:09:00.261Z,15.71
2017-09-08T07:10:00.286Z,15.74
2017-09-08T07:11:00.203Z,15.9
2017-09-08T07:12:00.244Z,15.87
2017-09-08T07:13:00.248Z,15.94
2017-09-08T07:14:14.900Z,15.94
2017-09-08T07:15:00.302Z,15.94
2017-09-08T07:16:00.329Z,16.05
2017-09-08T07:17:00.336Z,16.09
2017-09-08T07:18:15.181Z,16.14
2017-09-08T07:19:00.082Z,16.14
2017-09-08T07:20:00.506Z,16.3
2017-09-08T07:21:00.117Z,16.3
2017-09-08T07:22:00.461Z,16.31
2017-09-08T07:23:00.484Z,16.46
2017-09-08T07:25:00.220Z,16.57
2017-09-08T07:26:00.753Z,16.48
2017-09-08T07:27:00.575Z,16.46
2017-09-08T07:28:00.281Z,16.53
2017-09-08T07:29:00.765Z,16.53
2017-09-08T07:30:00.390Z,16.53
2017-09-08T07:31:00.669Z,16.5
2017-09-08T07:32:00.690Z,16.57
2017-09-08T07:33:00.863Z,16.67
2017-09-08T07:34:00.421Z,16.75
2017-09-08T07:35:00.454Z,16.66
2017-09-08T07:37:00.805Z,16.83
2017-09-08T07:38:00.833Z,16.76
2017-09-08T07:39:00.846Z,16.71
2017-09-08T07:40:15.485Z,16.83
2017-09-08T07:41:15.693Z,16.93
2017-09-08T07:42:01.011Z,17.03
2017-09-08T07:43:00.954Z,17.11
2017-09-08T07:44:00.969Z,17.15
2017-09-08T07:45:01.092Z,17.22
2017-09-08T07:46:00.701Z,17.31
2017-09-08T07:47:01.038Z,17.38
2017-09-08T07:48:00.752Z,17.38
2017-09-08T07:49:00.763Z,17.41
2017-09-08T07:50:00.893Z,17.55
2017-09-08T07:51:00.815Z,17.62
2017-09-08T07:52:01.157Z,17.66
2017-09-08T07:54:15.815Z,17.89
2017-09-08T07:55:00.912Z,17.84
2017-09-08T07:56:15.859Z,17.87
2017-09-08T07:57:01.263Z,17.95
2017-09-08T07:58:01.085Z,18.08
2017-09-08T07:59:01.423Z,18.1
2017-09-08T08:00:01.030Z,18.08
2017-09-08T08:01:01.355Z,18.14
2017-09-08T08:02:01.393Z,18.18
2017-09-08T08:03:01.510Z,18.18
2017-09-08T08:04:01.435Z,18.23
2017-09-08T08:05:00.833Z,18.3
2017-09-08T08:06:01.320Z,18.3
2017-09-08T08:07:01.599Z,18.41
2017-09-08T08:08:01.519Z,18.41
2017-09-08T08:09:01.617Z,18.44
2017-09-08T08:10:16.194Z,18.41
2017-09-08T08:11:01.608Z,18.52
2017-09-08T08:12:16.280Z,18.5
2017-09-08T08:13:16.282Z,18.35
2017-09-08T08:14:01.677Z,18.55
2017-09-08T08:15:01.382Z,18.72
2017-09-08T08:16:01.423Z,18.76
2017-09-08T08:18:01.862Z,18.84
2017-09-08T08:19:01.902Z,18.95
2017-09-08T08:20:01.837Z,18.94
2017-09-08T08:21:02.000Z,19.08
2017-09-08T08:22:01.877Z,19.08
2017-09-08T08:23:01.267Z,19.07
2017-09-08T08:25:02.090Z,19.11
2017-09-08T08:26:01.977Z,19.02
2017-09-08T08:27:01.987Z,19.08
2017-09-08T08:28:16.631Z,19.08
2017-09-08T08:29:01.726Z,19.16
2017-09-08T08:30:02.077Z,19.21
2017-09-08T08:31:02.088Z,19.21
2017-09-08T08:32:02.009Z,19.28
2017-09-08T08:33:01.924Z,19.22
2017-09-08T08:34:01.854Z,19.25
2017-09-08T08:35:02.207Z,19.23
2017-09-08T08:36:01.898Z,19.16
2017-09-08T08:37:02.240Z,19.07
2017-09-08T08:38:02.243Z,19.07
2017-09-08T08:39:02.287Z,18.9
2017-09-08T08:40:02.311Z,18.88
2017-09-08T08:41:02.025Z,18.82
2017-09-08T08:42:02.351Z,18.73
2017-09-08T08:43:17.089Z,18.75
2017-09-08T08:44:02.418Z,18.67
2017-09-08T08:45:02.524Z,18.63
2017-09-08T08:46:02.550Z,18.66
2017-09-08T08:47:02.479Z,18.57
2017-09-08T08:48:02.499Z,18.69
2017-09-08T08:49:02.524Z,18.57
2017-09-08T08:50:02.242Z,18.58
2017-09-08T08:51:02.732Z,18.72
2017-09-08T08:52:02.785Z,18.67
2017-09-08T08:53:02.720Z,18.73
2017-09-08T08:54:02.349Z,18.73
2017-09-08T08:55:02.366Z,18.78
2017-09-08T08:56:02.381Z,18.84
2017-09-08T08:57:02.722Z,18.87
2017-09-08T08:58:02.831Z,18.92
2017-09-08T08:59:02.874Z,18.92
2017-09-08T09:00:02.793Z,18.87
2017-09-08T09:01:02.966Z,18.76
2017-09-08T09:02:02.833Z,18.73
2017-09-08T09:03:02.886Z,18.72
2017-09-08T09:04:03.199Z,18.69
2017-09-08T09:05:17.685Z,18.62
2017-09-08T09:06:02.944Z,18.57
2017-09-08T09:07:02.962Z,18.58
2017-09-08T09:08:03.134Z,18.55
2017-09-08T09:09:03.010Z,18.57
2017-09-08T09:10:17.670Z,18.57
2017-09-08T09:11:02.738Z,18.47
2017-09-08T09:12:03.192Z,18.33
2017-09-08T09:13:02.794Z,18.5
2017-09-08T09:14:03.125Z,18.48
2017-09-08T09:15:17.778Z,18.45
2017-09-08T09:16:17.790Z,18.48
2017-09-08T09:17:03.034Z,18.48
2017-09-08T09:18:03.414Z,18.47
2017-09-08T09:19:03.230Z,18.62
2017-09-08T09:20:03.058Z,18.52
2017-09-08T09:22:03.500Z,18.69
2017-09-08T09:23:03.040Z,18.58
2017-09-08T09:25:03.514Z,18.72
2017-09-08T09:26:03.108Z,18.75
2017-09-08T09:27:03.563Z,18.81
2017-09-08T09:28:18.087Z,18.73
2017-09-08T09:30:03.510Z,18.67
2017-09-08T09:31:18.168Z,18.58
2017-09-08T09:32:03.602Z,18.6
2017-09-08T09:33:03.723Z,18.47
2017-09-08T09:34:03.411Z,18.58
2017-09-08T09:35:03.648Z,18.63
2017-09-08T09:36:03.656Z,18.72
2017-09-08T09:37:03.694Z,18.58
2017-09-08T09:38:18.335Z,18.55
2017-09-08T09:40:03.619Z,18.73
2017-09-08T09:41:03.468Z,18.75
2017-09-08T09:42:03.827Z,18.76
2017-09-08T09:43:03.830Z,18.76
2017-09-08T09:44:03.869Z,18.9
2017-09-08T09:45:03.884Z,18.98
2017-09-08T09:46:03.909Z,19.07
2017-09-08T09:47:18.535Z,19.19
2017-09-08T09:48:03.972Z,19.08
2017-09-08T09:49:03.674Z,19.11
2017-09-08T09:50:03.860Z,19.22
2017-09-08T09:51:04.276Z,19.23
2017-09-08T09:53:04.166Z,19.36
2017-09-08T09:54:04.094Z,19.48
2017-09-08T09:55:04.238Z,19.41
2017-09-08T09:56:04.245Z,19.54
2017-09-08T09:57:04.191Z,19.56
2017-09-08T09:58:18.814Z,19.48
2017-09-08T09:59:04.223Z,19.43
2017-09-08T10:00:04.251Z,19.48
2017-09-08T10:01:03.962Z,19.44
2017-09-08T10:02:04.312Z,19.47
2017-09-08T10:03:18.933Z,19.46
2017-09-08T10:04:04.045Z,19.39
2017-09-08T10:05:04.370Z,19.62
2017-09-08T10:06:04.410Z,19.55
2017-09-08T10:07:04.525Z,19.55
2017-09-08T10:08:04.438Z,19.58
2017-09-08T10:09:04.477Z,19.61
2017-09-08T10:10:04.607Z,19.51
2017-09-08T10:11:04.611Z,19.44
2017-09-08T10:12:04.543Z,19.44
2017-09-08T10:13:04.560Z,19.54
2017-09-08T10:14:04.290Z,19.37
2017-09-08T10:15:04.605Z,19.4
2017-09-08T10:16:04.642Z,19.28
2017-09-08T10:17:04.890Z,19.31
2017-09-08T10:18:19.303Z,19.29
2017-09-08T10:19:04.715Z,19.19
2017-09-08T10:20:04.746Z,19.26
2017-09-08T10:22:04.792Z,19.21
2017-09-08T10:23:04.815Z,19.25
2017-09-08T10:24:04.983Z,19.31
2017-09-08T10:25:04.860Z,19.46
2017-09-08T10:26:04.899Z,19.48
2017-09-08T10:27:19.576Z,19.68
2017-09-08T10:28:04.944Z,19.74
2017-09-08T10:29:05.053Z,19.78
2017-09-08T10:30:04.988Z,19.87
2017-09-08T10:32:05.014Z,20.05
2017-09-08T10:33:05.148Z,20.1
2017-09-08T10:34:05.076Z,20.16
2017-09-08T10:35:05.106Z,20.06
2017-09-08T10:37:05.147Z,20.01
2017-09-08T10:38:05.175Z,19.98
2017-09-08T10:39:04.881Z,19.91
2017-09-08T10:40:05.232Z,19.91
2017-09-08T10:41:05.246Z,19.84
2017-09-08T10:42:05.309Z,19.76
2017-09-08T10:43:05.401Z,19.81
2017-09-08T10:44:19.830Z,19.86
2017-09-08T10:45:05.341Z,19.78
2017-09-08T10:46:05.059Z,19.8
2017-09-08T10:47:05.391Z,19.88
2017-09-08T10:48:05.411Z,19.87
2017-09-08T10:49:05.445Z,19.92
2017-09-08T10:50:20.088Z,20.06
2017-09-08T10:51:05.217Z,20.21
2017-09-08T10:52:05.195Z,20.28
2017-09-08T10:53:05.433Z,20.42
2017-09-08T10:54:05.564Z,20.35
2017-09-08T10:55:05.586Z,20.5
2017-09-08T10:56:20.238Z,20.48
2017-09-08T10:57:05.633Z,20.52
2017-09-08T10:58:05.664Z,20.61
2017-09-08T10:59:05.679Z,20.58
2017-09-08T11:00:20.331Z,20.61
2017-09-08T11:01:05.431Z,20.72
2017-09-08T11:02:05.762Z,20.88
2017-09-08T11:03:05.936Z,20.87
2017-09-08T11:05:20.450Z,21.25
2017-09-08T11:06:20.476Z,21.34
2017-09-08T11:07:05.882Z,21.35
2017-09-08T11:08:05.595Z,21.25
2017-09-08T11:09:05.937Z,21.24
2017-09-08T11:10:06.050Z,21.32
2017-09-08T11:11:05.973Z,21.32
2017-09-08T11:12:06.016Z,21.37
2017-09-08T11:13:06.133Z,21.38
2017-09-08T11:14:06.259Z,21.34
2017-09-08T11:15:06.175Z,21.42
2017-09-08T11:16:06.108Z,21.42
2017-09-08T11:17:06.138Z,21.37
2017-09-08T11:18:06.268Z,21.35
2017-09-08T11:20:05.907Z,21.29
2017-09-08T11:21:06.239Z,21.27
2017-09-08T11:22:20.879Z,21.25
2017-09-08T11:23:06.223Z,21.24
2017-09-08T11:24:06.306Z,21.28
2017-09-08T11:25:20.965Z,21.4
2017-09-08T11:26:20.983Z,21.31
2017-09-08T11:27:06.481Z,21.31
2017-09-08T11:28:06.514Z,21.29
2017-09-08T11:29:06.424Z,21.22
2017-09-08T11:30:06.566Z,21.27
2017-09-08T11:31:06.589Z,21.32
2017-09-08T11:32:06.393Z,21.19
2017-09-08T11:33:06.539Z,21.19
2017-09-08T11:34:06.563Z,21.16
2017-09-08T11:35:06.687Z,21.22
2017-09-08T11:36:06.610Z,21.22
2017-09-08T11:37:06.007Z,21.42
2017-09-08T11:38:21.421Z,21.29
2017-09-08T11:39:21.296Z,21.22
2017-09-08T11:40:06.706Z,21.07
2017-09-08T11:41:06.739Z,20.94
2017-09-08T11:42:06.856Z,21.09
2017-09-08T11:43:06.802Z,21.16
2017-09-08T11:44:06.907Z,21.25
2017-09-08T11:45:06.824Z,20.97
2017-09-08T11:46:06.550Z,20.94
2017-09-08T11:47:06.990Z,20.92
2017-09-08T11:48:06.797Z,20.95
2017-09-08T11:49:07.141Z,20.91
2017-09-08T11:50:06.645Z,20.89
2017-09-08T11:51:06.983Z,21.07
2017-09-08T11:52:06.709Z,21.14
2017-09-08T11:53:21.648Z,21.31
2017-09-08T11:54:07.066Z,21.34
2017-09-08T11:55:07.294Z,21.34
2017-09-08T11:56:06.798Z,21.44
2017-09-08T11:57:07.146Z,21.35
2017-09-08T11:58:07.266Z,21.32
2017-09-08T11:59:07.548Z,21.38
2017-09-08T12:00:07.213Z,21.28
2017-09-08T12:01:07.133Z,21.24
2017-09-08T12:02:07.362Z,21.24
2017-09-08T12:03:07.482Z,21.21
2017-09-08T12:04:07.322Z,21.17
2017-09-08T12:05:07.386Z,21.19
2017-09-08T12:06:07.490Z,21.04
2017-09-08T12:07:07.081Z,21.1
2017-09-08T12:08:07.512Z,21.06
2017-09-08T12:09:07.542Z,21.16
2017-09-08T12:10:07.615Z,21.09
2017-09-08T12:11:07.581Z,20.89
2017-09-08T12:12:07.524Z,20.99
2017-09-08T12:13:07.639Z,20.85
2017-09-08T12:14:07.410Z,20.76
2017-09-08T12:15:07.894Z,20.82
2017-09-08T12:16:07.611Z,20.88
2017-09-08T12:17:07.628Z,20.89
2017-09-08T12:19:07.686Z,20.89
2017-09-08T12:20:07.409Z,20.89
2017-09-08T12:21:07.739Z,20.95
2017-09-08T12:22:07.348Z,21.01
2017-09-08T12:23:07.477Z,20.91
2017-09-08T12:24:07.990Z,20.92
2017-09-08T12:25:22.461Z,20.8
2017-09-08T12:26:07.653Z,20.73
2017-09-08T12:27:07.895Z,20.7
2017-09-08T12:28:07.707Z,20.66
2017-09-08T12:29:07.888Z,20.67
2017-09-08T12:30:08.115Z,20.64
2017-09-08T12:32:08.024Z,20.61
2017-09-08T12:33:08.035Z,20.58
2017-09-08T12:34:08.163Z,20.55
2017-09-08T12:35:07.973Z,20.5
2017-09-08T12:36:07.809Z,20.57
2017-09-08T12:37:08.035Z,20.51
2017-09-08T12:38:07.542Z,20.35
2017-09-08T12:39:08.028Z,20.39
2017-09-08T12:40:07.906Z,20.33
2017-09-08T12:41:22.867Z,20.24
2017-09-08T12:42:08.359Z,20.26
2017-09-08T12:43:08.382Z,20.42
2017-09-08T12:44:08.310Z,20.38
2017-09-08T12:45:08.332Z,20.35
2017-09-08T12:46:07.891Z,20.31
2017-09-08T12:47:08.425Z,20.35
2017-09-08T12:48:08.406Z,20.39
2017-09-08T12:49:08.424Z,20.41
2017-09-08T12:50:08.497Z,20.39
2017-09-08T12:51:08.494Z,20.33
2017-09-08T12:52:08.718Z,20.29
2017-09-08T12:53:08.535Z,20.32
2017-09-08T12:54:08.558Z,20.32
2017-09-08T12:55:08.589Z,20.35
2017-09-08T12:56:08.610Z,20.23
2017-09-08T12:57:22.941Z,20.31
2017-09-08T12:58:08.807Z,20.2
2017-09-08T12:59:08.690Z,20.23
2017-09-08T13:00:08.400Z,20.24
2017-09-08T13:01:08.730Z,20.21
2017-09-08T13:02:08.760Z,20.2
2017-09-08T13:03:08.783Z,20.17
2017-09-08T13:04:08.817Z,20.13
2017-09-08T13:05:08.819Z,20.13
2017-09-08T13:06:08.960Z,20.1
2017-09-08T13:07:09.078Z,20.08
2017-09-08T13:08:23.528Z,20.21
2017-09-08T13:09:08.404Z,20.13
2017-09-08T13:10:08.955Z,20.14
2017-09-08T13:11:08.991Z,20.14
2017-09-08T13:12:08.692Z,20.1
2017-09-08T13:13:23.754Z,19.94
2017-09-08T13:14:09.216Z,19.95
2017-09-08T13:15:09.076Z,19.99
2017-09-08T13:16:09.216Z,19.94
2017-09-08T13:17:08.965Z,19.77
2017-09-08T13:18:23.458Z,19.71
2017-09-08T13:19:09.174Z,19.78
2017-09-08T13:20:09.203Z,19.76
2017-09-08T13:21:09.384Z,19.62
2017-09-08T13:22:09.631Z,19.65
2017-09-08T13:23:09.390Z,19.62
2017-09-08T13:24:09.444Z,19.59
2017-09-08T13:25:09.471Z,19.61
2017-09-08T13:26:09.356Z,19.56
2017-09-08T13:27:09.383Z,19.61
2017-09-08T13:28:24.022Z,19.43
2017-09-08T13:29:09.117Z,19.36
2017-09-08T13:30:09.549Z,19.32
2017-09-08T13:31:09.467Z,19.32
2017-09-08T13:32:09.644Z,19.31
2017-09-08T13:33:09.633Z,19.31
2017-09-08T13:34:09.545Z,19.36
2017-09-08T13:35:09.568Z,19.28
2017-09-08T13:36:09.608Z,19.21
2017-09-08T13:37:09.320Z,19.22
2017-09-08T13:38:09.636Z,19.21
2017-09-08T13:39:09.669Z,19.14
2017-09-08T13:40:09.394Z,19.18
2017-09-08T13:41:10.017Z,19.18
2017-09-08T13:42:09.904Z,19.22
2017-09-08T13:43:09.774Z,19.19
2017-09-08T13:45:09.909Z,19.13
2017-09-08T13:46:09.525Z,19.11
2017-09-08T13:47:09.354Z,19.02
2017-09-08T13:48:09.995Z,19.14